createdAt,value
2023-02-08T00:01:33.557Z,103682.73
2023-02-08T00:04:02.367Z,103688.85
2023-02-08T00:06:30.905Z,103688.52
2023-02-08T00:09:00.130Z,103683.14
2023-02-08T00:11:28.484Z,103684.65
2023-02-08T00:13:56.720Z,103691.41
2023-02-08T00:16:25.194Z,103693.65
2023-02-08T00:18:53.718Z,103699.20
2023-02-08T00:21:22.725Z,103700.56
2023-02-08T00:23:51.317Z,103706.48
2023-02-08T00:26:20.051Z,103703.73
2023-02-08T00:28:48.250Z,103711.91
2023-02-08T00:31:16.664Z,103710.70
2023-02-08T00:33:45.991Z,103708.73
2023-02-08T00:36:14.437Z,103708.71
2023-02-08T00:38:42.834Z,103711.78
2023-02-08T00:41:11.654Z,103707.52
2023-02-08T00:43:40.145Z,103707.70
2023-02-08T00:46:09.854Z,103704.84
2023-02-08T00:48:38.271Z,103711.14
2023-02-08T00:51:13.940Z,103713.43
2023-02-08T00:53:45.606Z,103710.67
2023-02-08T00:56:16.085Z,103715.02
2023-02-08T00:58:45.196Z,103716.64
2023-02-08T01:01:14.546Z,103716.31
2023-02-08T01:03:45.707Z,103716.23
2023-02-08T01:06:17.075Z,103715.32
2023-02-08T01:08:45.529Z,103711.58
2023-02-08T01:11:18.685Z,103707.55
2023-02-08T01:13:47.267Z,103714.81
2023-02-08T01:16:21.692Z,103715.25
2023-02-08T01:18:52.750Z,103716.98
2023-02-08T01:21:24.395Z,103724.90
2023-02-08T01:23:53.312Z,103723.58
2023-02-08T01:26:22.898Z,103729.27
2023-02-08T01:28:52.249Z,103732.13
2023-02-08T01:31:42.318Z,103732.08
2023-02-08T01:34:12.876Z,103730.80
2023-02-08T01:36:41.466Z,103731.13
2023-02-08T01:39:11.351Z,103733.48
2023-02-08T01:41:44.572Z,103733.35
2023-02-08T01:44:12.827Z,103731.22
2023-02-08T01:46:51.518Z,103736.86
2023-02-08T01:49:33.697Z,103732.43
2023-02-08T01:52:22.922Z,103732.91
2023-02-08T01:54:53.777Z,103729.98
2023-02-08T01:57:23.478Z,103729.21
2023-02-08T02:00:14.382Z,103728.56
2023-02-08T02:02:44.445Z,103723.42
2023-02-08T02:05:13.770Z,103722.41
2023-02-08T02:07:42.617Z,103721.86
2023-02-08T02:10:16.442Z,103715.42
2023-02-08T02:12:46.344Z,103713.56
2023-02-08T02:15:14.569Z,103717.52
2023-02-08T02:17:43.322Z,103716.87
2023-02-08T02:20:27.226Z,103719.08
2023-02-08T02:23:17.802Z,103722.88
2023-02-08T02:26:23.757Z,103721.43
2023-02-08T02:29:33.290Z,103721.95
2023-02-08T02:32:20.233Z,103717.16
2023-02-08T02:35:02.118Z,103718.10
2023-02-08T02:37:31.969Z,103720.16
2023-02-08T02:40:08.999Z,103721.13
2023-02-08T02:43:27.450Z,103723.39
2023-02-08T02:46:06.297Z,103723.86
2023-02-08T02:49:06.563Z,103725.24
2023-02-08T02:51:48.144Z,103726.33
2023-02-08T02:54:51.396Z,103730.02
2023-02-08T02:57:27.529Z,103732.92
2023-02-08T02:59:58.005Z,103736.59
2023-02-08T03:02:28.531Z,103735.20
2023-02-08T03:04:58.078Z,103735.70
2023-02-08T03:07:55.863Z,103739.61
2023-02-08T03:10:41.220Z,103739.23
2023-02-08T03:13:25.861Z,103744.45
2023-02-08T03:16:16.336Z,103751.48
2023-02-08T03:19:12.106Z,103754.14
2023-02-08T03:21:58.515Z,103758.59
2023-02-08T03:24:32.228Z,103761.91
2023-02-08T03:27:18.339Z,103765.52
2023-02-08T03:30:02.820Z,103771.34
2023-02-08T03:32:42.867Z,103772.66
2023-02-08T03:35:27.193Z,103771.05
2023-02-08T03:38:02.395Z,103770.78
2023-02-08T03:40:44.897Z,103769.61
2023-02-08T03:43:22.529Z,103769.01
2023-02-08T03:46:14.196Z,103772.26
2023-02-08T03:48:48.387Z,103772.56
2023-02-08T03:51:18.564Z,103770.75
2023-02-08T03:53:49.291Z,103771.68
2023-02-08T03:56:23.152Z,103776.33
2023-02-08T03:59:05.055Z,103778.34
2023-02-08T04:01:41.881Z,103778.84
2023-02-08T04:04:12.912Z,103783.79
2023-02-08T04:06:41.511Z,103784.31
2023-02-08T04:09:10.829Z,103781.75
2023-02-08T04:11:41.603Z,103784.85
2023-02-08T04:14:09.698Z,103784.25
2023-02-08T04:19:37.310Z,103781.94
2023-02-08T04:22:05.484Z,103782.34
2023-02-08T04:24:33.827Z,103778.54
2023-02-08T04:27:03.469Z,103769.05
2023-02-08T04:29:33.339Z,103766.52
2023-02-08T04:32:01.671Z,103765.84
2023-02-08T04:34:30.282Z,103764.06
2023-02-08T04:36:58.585Z,103759.44
2023-02-08T04:39:26.855Z,103765.83
2023-02-08T04:41:55.033Z,103766.55
2023-02-08T04:44:23.751Z,103767.80
2023-02-08T04:46:52.553Z,103768.09
2023-02-08T04:49:20.820Z,103769.41
2023-02-08T04:51:52.221Z,103769.52
2023-02-08T04:54:20.538Z,103769.65
2023-02-08T04:56:49.091Z,103774.42
2023-02-08T04:59:17.456Z,103785.30
2023-02-08T05:01:49.037Z,103790.46
2023-02-08T05:04:18.645Z,103789.98
2023-02-08T05:06:48.481Z,103791.77
2023-02-08T05:09:17.817Z,103790.96
2023-02-08T05:11:46.156Z,103793.27
2023-02-08T05:14:14.366Z,103794.40
2023-02-08T05:16:42.667Z,103801.56
2023-02-08T05:19:14.640Z,103804.59
2023-02-08T05:21:42.974Z,103806.56
2023-02-08T05:24:12.841Z,103806.08
2023-02-08T05:26:42.184Z,103811.88
2023-02-08T05:29:13.251Z,103813.98
2023-02-08T05:31:41.546Z,103821.52
2023-02-08T05:34:09.943Z,103822.73
2023-02-08T05:36:38.380Z,103820.83
2023-02-08T05:39:08.162Z,103822.41
2023-02-08T05:41:37.129Z,103825.23
2023-02-08T05:44:05.532Z,103830.56
2023-02-08T05:46:34.643Z,103834.14
2023-02-08T05:49:03.739Z,103832.36
2023-02-08T05:51:32.261Z,103836.41
2023-02-08T05:54:00.563Z,103842.95
2023-02-08T05:56:29.086Z,103846.63
2023-02-08T05:58:57.773Z,103843.20
2023-02-08T06:01:26.262Z,103841.69
2023-02-08T06:03:55.301Z,103846.67
2023-02-08T06:06:24.168Z,103848.63
2023-02-08T06:08:52.542Z,103850.75
2023-02-08T06:11:20.800Z,103847.91
2023-02-08T06:13:49.093Z,103855.72
2023-02-08T06:16:19.893Z,103860.55
2023-02-08T06:18:48.996Z,103856.52
2023-02-08T06:21:18.010Z,103858.98
2023-02-08T06:23:47.556Z,103858.91
2023-02-08T06:26:15.853Z,103861.45
2023-02-08T06:28:47.645Z,103860.85
2023-02-08T06:31:16.163Z,103862.59
2023-02-08T06:33:44.562Z,103857.75
2023-02-08T06:36:12.805Z,103859.52
2023-02-08T06:38:41.225Z,103862.77
2023-02-08T06:41:09.404Z,103861.91
2023-02-08T06:43:41.004Z,103860.65
2023-02-08T06:46:09.605Z,103866.20
2023-02-08T06:48:39.173Z,103867.72
2023-02-08T06:51:08.111Z,103871.06
2023-02-08T06:53:36.439Z,103867.88
2023-02-08T06:56:05.032Z,103864.95
2023-02-08T06:58:33.283Z,103868.30
2023-02-08T07:01:01.640Z,103869.81
2023-02-08T07:03:30.019Z,103865.52
2023-02-08T07:06:04.954Z,103866.02
2023-02-08T07:08:36.791Z,103864.03
2023-02-08T07:11:13.709Z,103856.53
2023-02-08T07:13:45.051Z,103859.98
2023-02-08T07:16:20.245Z,103860.81
2023-02-08T07:18:50.527Z,103861.11
2023-02-08T07:21:19.082Z,103859.35
2023-02-08T07:23:47.752Z,103857.69
2023-02-08T07:26:17.247Z,103859.63
2023-02-08T07:28:45.617Z,103856.27
2023-02-08T07:31:17.119Z,103856.79
2023-02-08T07:33:45.628Z,103855.34
2023-02-08T07:36:14.333Z,103853.82
2023-02-08T07:38:42.721Z,103848.85
2023-02-08T07:41:14.599Z,103845.92
2023-02-08T07:43:43.620Z,103844.19
2023-02-08T07:46:18.295Z,103843.55
2023-02-08T07:48:46.883Z,103843.14
2023-02-08T07:51:17.927Z,103841.15
2023-02-08T07:53:46.378Z,103844.35
2023-02-08T07:56:14.728Z,103840.88
2023-02-08T07:58:43.262Z,103838.05
2023-02-08T08:01:22.056Z,103833.66
2023-02-08T08:03:52.223Z,103829.70
2023-02-08T08:06:22.318Z,103835.78
2023-02-08T08:08:51.289Z,103838.45
2023-02-08T08:11:24.260Z,103838.75
2023-02-08T08:13:54.407Z,103845.09
2023-02-08T08:16:22.837Z,103845.07
2023-02-08T08:18:51.109Z,103845.04
2023-02-08T08:21:20.124Z,103845.48
2023-02-08T08:23:48.486Z,103851.04
2023-02-08T08:26:20.773Z,103850.38
2023-02-08T08:28:49.183Z,103851.29
2023-02-08T08:31:21.334Z,103851.92
2023-02-08T08:33:50.599Z,103849.12
2023-02-08T08:36:19.229Z,103850.42
2023-02-08T08:38:47.438Z,103850.71
2023-02-08T08:41:18.321Z,103850.23
2023-02-08T08:43:47.298Z,103860.61
2023-02-08T08:46:20.058Z,103858.86
2023-02-08T08:48:48.966Z,103854.96
2023-02-08T08:51:17.434Z,103855.86
2023-02-08T08:53:46.001Z,103859.13
2023-02-08T08:56:14.392Z,103867.92
2023-02-08T08:58:44.403Z,103871.50
2023-02-08T09:01:14.679Z,103875.70
2023-02-08T09:03:43.322Z,103876.58
2023-02-08T09:06:11.833Z,103875.09
2023-02-08T09:08:40.900Z,103876.87
2023-02-08T09:11:11.748Z,103875.45
